• Join FlightAware (Why Join?)
  • Login
  • US Flag 
Gobble Gobble! 
06:10PM EST


 

Airport Tracker/Info


-or-


 

Live Flight TrackerFlight Track Log ✈ UAL395 ✈ 29-Apr-2013 ✈ CYYC - KIAH

Flight Track Log - Related Links

Times and Time Zones

All times are in EDT time to prevent confusion due to time zone crossing. See the UAL395 flight status page for this flight to view local times or setup timezone preferences in your user account.

Time Position Orientation Groundspeed Altitude Reporting Facility
EDT Latitude Longitude Course Direction KTS MPH feet Rate Location/Type
07:27PM 51.1000 -114.0333 165° South 140 161 5,100  Level Edmonton Center
07:28PM 51.1500 -114.0500 348° North 180 207 7,900 2,580 Climbing Edmonton Center
07:29PM 51.1667 -114.1333 288° West 260 299 10,300 2,400 Climbing Edmonton Center
07:30PM 50.6487 -113.8061 166° South  Level FlightAware Approximate
07:30PM 51.1167 -114.2333 231° Southwest 330 380 12,700  Level Edmonton Center
07:31PM 50.5347 -113.7514 148° Southeast  Level FlightAware Approximate
07:31PM 51.0333 -114.3000 207° Southwest 340 391 16,200  Level Edmonton Center
07:32PM 50.4259 -113.7038 165° South  Level FlightAware Approximate
07:32PM 50.9333 -114.3167 186° South 360 414 19,200  Level Edmonton Center
07:33PM 50.8333 -114.2833 168° South 370 426 20,900 1,800 Climbing Edmonton Center
07:34PM 50.7333 -114.2500 168° South 380 437 22,900 1,800 Climbing Edmonton Center
07:35PM 50.6167 -114.2000 165° South 390 449 24,500 1,440 Climbing Edmonton Center
07:36PM 50.5167 -114.1500 162° South 410 472 25,800 1,380 Climbing Edmonton Center
07:37PM 50.4000 -114.0500 151° Southeast 430 495 27,300 1,140 Climbing Edmonton Center
07:38PM 50.3000 -113.9333 143° Southeast 450 518 28,100 840 Climbing Edmonton Center
07:39PM 50.1833 -113.8000 144° Southeast 470 541 29,000 1,080 Climbing Edmonton Center
07:40PM 50.1000 -113.6667 134° Southeast 480 552 30,300 1,260 Climbing Edmonton Center
07:41PM 49.9667 -113.5500 151° Southeast 490 564 31,600 1,320 Climbing Edmonton Center
07:42PM 49.8833 -113.4167 134° Southeast 500 575 33,000 1,260 Climbing Edmonton Center
07:43PM 49.7667 -113.3000 147° Southeast 490 564 34,200 1,200 Climbing Edmonton Center
07:44PM 49.6500 -113.1500 140° Southeast 500 575 35,400 1,260 Climbing Edmonton Center
07:45PM 49.5500 -113.0167 139° Southeast 490 564 36,800 1,020 Climbing Edmonton Center
07:46PM 49.4333 -112.9000 147° Southeast 500 575 37,500 780 Climbing Edmonton Center
07:47PM 49.3333 -112.7833 143° Southeast 500 575 38,400 720 Climbing Edmonton Center
07:48PM 49.2167 -112.6167 137° Southeast 490 564 39,000 300 Climbing Edmonton Center
07:49PM 49.1167 -112.5000 143° Southeast 480 552 39,000 -60 Level Edmonton Center
07:50PM 49.0167 -112.3833 143° Southeast 480 552 38,900  Descending Edmonton Center
07:51PM 48.9000 -112.2667 147° Southeast 490 564 39,000  Climbing Edmonton Center
07:52PM 48.7833 -112.1500 147° Southeast 490 564 39,000 -120 Level Edmonton Center
07:52PM 48.7867 -112.0786 86° East 489 563 38,900 -120 Descending Salt Lake Center
07:53PM 48.6564 -111.9311 143° Southeast 487 560 38,900  Level Salt Lake Center
07:54PM 48.5486 -111.8081 143° Southeast 487 560 38,900  Level Salt Lake Center
07:55PM 48.4400 -111.6869 143° Southeast 486 559 38,900  Level Salt Lake Center
07:56PM 48.3306 -111.5650 143° Southeast 488 562 38,900  Level Salt Lake Center
07:57PM 48.2214 -111.4428 143° Southeast 490 564 38,900  Level Salt Lake Center
07:59PM 48.1119 -111.3219 144° Southeast 488 562 38,900  Level Salt Lake Center
08:00PM 48.0006 -111.2000 144° Southeast 492 566 38,900  Level Salt Lake Center
08:01PM 47.8886 -111.0775 144° Southeast 494 568 38,900  Level Salt Lake Center
08:02PM 47.7753 -110.9533 144° Southeast 498 573 38,900  Level Salt Lake Center
08:03PM 47.6611 -110.8306 144° Southeast 501 577 38,900  Level Salt Lake Center
08:04PM 47.5267 -110.6853 144° Southeast 495 570 38,900  Level Salt Lake Center
08:05PM 47.4142 -110.5653 144° Southeast 497 572 38,900  Level Salt Lake Center
08:06PM 47.3039 -110.4481 144° Southeast 491 565 38,900  Level Salt Lake Center
08:07PM 47.1972 -110.3336 144° Southeast 479 551 38,900 -60 Level Salt Lake Center
08:08PM 47.0883 -110.2169 144° Southeast 482 555 38,800  Descending Salt Lake Center
08:09PM 46.9764 -110.0975 144° Southeast 493 567 38,900  Climbing Salt Lake Center
08:10PM 46.8636 -109.9797 144° Southeast 497 572 38,900  Level Salt Lake Center
08:11PM 46.7525 -109.8650 145° Southeast 493 567 38,900  Level Salt Lake Center
08:12PM 46.6200 -109.7356 146° Southeast 488 562 39,000  Climbing Salt Lake Center
08:13PM 46.5167 -109.6294 145° Southeast 478 550 39,000 -60 Level Salt Lake Center
08:14PM 46.3978 -109.5039 144° Southeast 472 543 38,900 -60 Descending Salt Lake Center
08:15PM 46.2950 -109.3997 145° Southeast 471 542 38,900  Level Salt Lake Center
08:16PM 46.1911 -109.2958 145° Southeast 474 545 38,900  Level Salt Lake Center
08:17PM 46.0689 -109.1739 145° Southeast 478 550 39,000  Climbing Salt Lake Center
08:18PM 45.9647 -109.0697 145° Southeast 477 549 39,000 -60 Level Salt Lake Center
08:19PM 45.8419 -108.9475 145° Southeast 480 552 38,900  Descending Salt Lake Center
08:20PM 45.7356 -108.8436 146° Southeast 482 555 39,000  Climbing Salt Lake Center
08:21PM 45.6306 -108.7403 145° Southeast 479 551 39,000 -60 Level Salt Lake Center
08:22PM 45.5075 -108.6197 146° Southeast 479 551 38,900 -60 Descending Salt Lake Center
08:23PM 45.4000 -108.5147 146° Southeast 488 562 38,900  Level Salt Lake Center
08:24PM 45.2719 -108.3914 146° Southeast 498 573 39,000  Climbing Salt Lake Center
08:25PM 45.1622 -108.2850 146° Southeast 498 573 39,000  Level Salt Lake Center
08:26PM 45.0356 -108.1625 146° Southeast 494 568 39,000  Level Salt Lake Center
08:27PM 44.9272 -108.0600 146° Southeast 491 565 39,000 -60 Level Salt Lake Center
08:28PM 44.8122 -107.9525 146° Southeast 491 565 38,900  Descending Salt Lake Center
08:29PM 44.6983 -107.8425 146° Southeast 494 568 39,000  Climbing Salt Lake Center
08:30PM 44.5689 -107.7219 146° Southeast 500 575 39,000 -60 Level Salt Lake Center
08:31PM 44.4586 -107.6192 146° Southeast 498 573 38,900 -60 Descending Salt Lake Center
08:32PM 44.3483 -107.5169 146° Southeast 498 573 38,900  Level Salt Lake Center
08:33PM 44.2197 -107.3975 146° Southeast 497 572 38,900  Level Salt Lake Center
08:34PM 44.1081 -107.2942 146° Southeast 502 578 39,000 60 Climbing Salt Lake Center
08:35PM 44.0533 -107.2419 146° Southeast 500 575 39,000 -120 Level Denver Center
08:36PM 43.9419 -107.1394 146° Southeast 501 577 38,900  Descending Denver Center
08:37PM 43.8108 -107.0219 147° Southeast 502 578 39,000 60 Climbing Denver Center
08:37PM 43.7353 -106.9561 148° Southeast 502 578 39,000  Level Salt Lake Center
08:39PM 43.6206 -106.8492 146° Southeast 496 571 39,000  Level Salt Lake Center
08:39PM 43.5839 -106.8153 146° Southeast 495 570 39,000  Level Denver Center
08:40PM 43.4553 -106.6997 147° Southeast 497 572 39,000 -60 Level Denver Center
08:41PM 43.3461 -106.6028 147° Southeast 490 564 38,900  Descending Denver Center
08:42PM 43.2169 -106.4872 147° Southeast 497 572 39,000  Climbing Denver Center
08:43PM 43.1067 -106.3897 147° Southeast 494 568 39,000 -60 Level Denver Center
08:44PM 42.9781 -106.2761 147° Southeast 493 567 38,900 4,620 Descending Denver Center
08:45PM 42.8667 -106.1811 148° Southeast 494 568 48,600  Climbing Denver Center
08:46PM 42.7414 -106.0694 147° Southeast 485 558 39,000 -4,740 Descending Denver Center
08:47PM 42.6331 -105.9761 148° Southeast 483 556 38,900  Descending Denver Center
08:48PM 42.5064 -105.8656 147° Southeast 485 558 39,000  Climbing Denver Center
08:49PM 42.3961 -105.7711 148° Southeast 492 566 38,900  Descending Denver Center
08:50PM 42.2850 -105.6753 147° Southeast 495 570 39,000  Climbing Denver Center
08:51PM 42.1603 -105.5683 148° Southeast 480 552 39,000  Level Denver Center
08:52PM 42.0506 -105.4761 148° Southeast 484 557 39,000  Level Denver Center
08:53PM 41.9231 -105.3672 148° Southeast 487 560 39,000  Level Denver Center
08:54PM 41.8183 -105.2786 148° Southeast 472 543 39,000  Level Denver Center
08:55PM 41.6997 -105.1794 148° Southeast 453 521 39,000  Level Denver Center
08:56PM 41.5981 -105.0958 148° Southeast 451 519 39,000 -60 Level Denver Center
08:57PM 41.4786 -104.9950 148° Southeast 454 522 38,900  Descending Denver Center
08:59PM 41.3742 -104.9081 148° Southeast 462 532 39,000  Climbing Denver Center
09:00PM 41.2528 -104.8075 148° Southeast 462 532 39,000  Level Denver Center
09:01PM 41.1497 -104.7156 146° Southeast 464 534 39,000  Level Denver Center
09:02PM 41.0339 -104.5997 143° Southeast 466 536 39,000  Level Denver Center
09:03PM 40.9339 -104.5014 143° Southeast 466 536 39,000  Level Denver Center
09:04PM 40.8272 -104.3983 144° Southeast 469 540 39,000  Level Denver Center
09:05PM 40.7203 -104.2961 144° Southeast 470 541 39,000 -60 Level Denver Center
09:06PM 40.6133 -104.1942 144° Southeast 471 542 38,900 -60 Descending Denver Center
09:07PM 40.5072 -104.0892 143° Southeast 473 544 38,900  Level Denver Center
09:08PM 40.3981 -103.9861 144° Southeast 478 550 39,000  Climbing Denver Center
09:09PM 40.2717 -103.8642 144° Southeast 478 550 39,000  Level Denver Center
09:10PM 40.1631 -103.7611 144° Southeast 474 545 39,000 -60 Level Denver Center
09:11PM 40.0533 -103.6594 145° Southeast 476 548 38,900 -540 Descending Denver Center
09:12PM 39.9436 -103.5556 144° Southeast 479 551 38,000 -900 Descending Denver Center
09:13PM 39.8322 -103.4522 145° Southeast 484 557 37,100 -540 Descending Denver Center
09:14PM 39.7242 -103.3503 144° Southeast 476 548 37,000 -60 Descending Denver Center
09:15PM 39.6144 -103.2486 144° Southeast 478 550 37,000 -60 Level Denver Center
09:16PM 39.5067 -103.1500 145° Southeast 472 543 36,900 -60 Descending Denver Center
09:17PM 39.3994 -103.0511 145° Southeast 470 541 36,900  Level Denver Center
09:18PM 39.2933 -102.9528 144° Southeast 466 536 37,000  Climbing Denver Center
09:19PM 39.1675 -102.8378 145° Southeast 469 540 36,900 -60 Descending Denver Center
09:20PM 39.0583 -102.7400 145° Southeast 474 545 36,900  Level Denver Center
09:21PM 38.9597 -102.6506 145° Southeast 474 545 37,000  Climbing Denver Center
09:22PM 38.8394 -102.5406 145° Southeast 475 547 37,000  Level Denver Center
09:23PM 38.7361 -102.4469 145° Southeast 476 548 37,000  Level Denver Center
09:24PM 38.6150 -102.3392 145° Southeast 475 547 37,000 -60 Level Denver Center
09:25PM 38.5283 -102.2636 146° Southeast 472 543 36,900 -60 Descending Denver Center
09:26PM 38.3903 -102.1403 145° Southeast 474 545 36,900  Level Denver Center
09:27PM 38.2881 -102.0481 145° Southeast 473 544 37,000  Climbing Denver Center
09:28PM 38.1667 -101.9422 146° Southeast 472 543 37,000  Level Denver Center
09:29PM 38.0644 -101.8533 146° Southeast 467 537 37,000 -120 Level Denver Center
09:30PM 37.9461 -101.7483 145° Southeast 466 536 36,800 -540 Descending Denver Center
09:32PM 37.8439 -101.6589 145° Southeast 467 537 35,900 -840 Descending Denver Center
09:32PM 37.7914 -101.6131 145° Southeast 471 542 35,500 -1,020 Descending Kansas City Center
09:33PM 37.6706 -101.5072 145° Southeast 475 547 34,400 -960 Descending Kansas City Center
09:34PM 37.5669 -101.4189 146° Southeast 474 545 33,600 -900 Descending Kansas City Center
09:35PM 37.4489 -101.3175 146° Southeast 467 537 32,600 -960 Descending Kansas City Center
09:36PM 37.3475 -101.2286 145° Southeast 467 537 31,700 -840 Descending Kansas City Center
09:37PM 37.2242 -101.1233 146° Southeast 479 551 30,900 -420 Descending Kansas City Center
09:38PM 37.1161 -101.0325 146° Southeast 487 560 30,900  Level Kansas City Center
09:39PM 36.9931 -100.9264 145° Southeast 485 558 30,900  Level Kansas City Center
09:40PM 36.8847 -100.8408 148° Southeast 483 556 31,000  Climbing Kansas City Center
09:41PM 36.7767 -100.7517 147° Southeast 486 559 30,900  Descending Kansas City Center
09:42PM 36.6489 -100.6503 148° Southeast 488 562 31,000  Climbing Kansas City Center
09:43PM 36.5394 -100.5633 147° Southeast 487 560 30,900  Descending Kansas City Center
09:44PM 36.4169 -100.4650 147° Southeast 484 557 31,000  Climbing Kansas City Center
09:45PM 36.3053 -100.3756 147° Southeast 479 551 31,000 -60 Level Kansas City Center
09:46PM 36.1958 -100.2892 147° Southeast 470 541 30,900 -60 Descending Kansas City Center
09:47PM 36.0844 -100.2014 148° Southeast 472 543 30,900  Level Kansas City Center
09:48PM 35.9750 -100.1147 147° Southeast 470 541 30,900  Level Kansas City Center
09:49PM 35.8628 -100.0258 147° Southeast 476 548 31,000  Climbing Kansas City Center
09:50PM 35.7286 -99.9208 148° Southeast 478 550 31,000  Level Kansas City Center
09:51PM 35.6594 -99.8661 147° Southeast 467 537 31,000  Level Fort Worth Center
09:52PM 35.5486 -99.7786 147° Southeast 467 537 31,000  Level Fort Worth Center
09:53PM 35.4333 -99.6939 149° Southeast 467 537 31,000 -60 Level Fort Worth Center
09:54PM 35.3222 -99.6067 147° Southeast 467 537 30,900 -60 Descending Fort Worth Center
09:55PM 35.2131 -99.5225 148° Southeast 467 537 30,900  Level Fort Worth Center
09:56PM 35.1019 -99.4361 146° Southeast 467 537 30,900  Level Fort Worth Center
09:57PM 35.0777 -99.4128 146° Southeast  Level FlightAware Approximate
09:58PM 34.8836 -99.2664 147° Southeast 467 537 31,000  Level Fort Worth Center
09:59PM 34.7722 -99.1831 148° Southeast 467 537 30,900 -60 Descending Fort Worth Center
10:00PM 34.6564 -99.0972 149° Southeast 467 537 30,900  Level Fort Worth Center
10:01PM 34.5469 -99.0169 149° Southeast 467 537 30,900  Level Fort Worth Center
10:02PM 34.4333 -98.9317 148° Southeast 472 543 31,000  Climbing Fort Worth Center
10:03PM 34.3236 -98.8494 148° Southeast 472 543 31,000 -60 Level Fort Worth Center
10:04PM 34.2097 -98.7647 148° Southeast 472 543 30,900  Descending Fort Worth Center
10:05PM 34.0958 -98.6775 148° Southeast 477 549 31,000  Climbing Fort Worth Center
10:06PM 33.9861 -98.5933 148° Southeast 482 555 31,000 -60 Level Fort Worth Center
10:07PM 33.8594 -98.5292 157° South 482 555 30,900 -60 Descending Fort Worth Center
10:08PM 33.7369 -98.4725 159° South 477 549 30,900  Level Fort Worth Center
10:09PM 33.6100 -98.4111 158° South 477 549 30,900  Level Fort Worth Center
10:10PM 33.4769 -98.3472 158° South 483 556 31,000  Climbing Fort Worth Center
10:11PM 33.3647 -98.2964 159° South 483 556 31,000 -60 Level Fort Worth Center
10:12PM 33.2314 -98.2356 159° South 473 544 30,900 -60 Descending Fort Worth Center
10:13PM 33.1192 -98.1800 157° South 473 544 30,900  Level Fort Worth Center
10:14PM 32.9836 -98.1192 159° South 473 544 30,900  Level Fort Worth Center
10:15PM 32.8714 -98.0689 159° South 473 544 31,000  Climbing Fort Worth Center
10:16PM 32.7403 -97.9914 154° Southeast 473 544 30,900  Descending Fort Worth Center
10:17PM 32.6508 -97.9019 140° Southeast 479 551 31,000  Climbing Fort Worth Center
10:18PM 32.5489 -97.7781 134° Southeast 474 545 31,000 -60 Level Fort Worth Center
10:19PM 32.4678 -97.6769 134° Southeast 474 545 30,900 -60 Descending Fort Worth Center
10:20PM 32.3697 -97.5536 133° Southeast 469 540 30,900  Level Fort Worth Center
10:21PM 32.2886 -97.4528 134° Southeast 469 540 30,900  Level Fort Worth Center
10:22PM 32.1903 -97.3325 134° Southeast 464 534 30,900  Level Fort Worth Center
10:23PM 32.1089 -97.2319 134° Southeast 464 534 30,900  Level Fort Worth Center
10:24PM 32.0083 -97.1169 136° Southeast 464 534 31,000  Climbing Fort Worth Center
10:25PM 31.9017 -97.0317 146° Southeast 464 534 31,000  Level Fort Worth Center
10:26PM 31.8658 -97.0050 148° Southeast 463 533 31,000 -120 Level Houston Center
10:26PM 31.7969 -96.9489 145° Southeast 459 528 30,900  Descending Fort Worth Center
10:29PM 31.5431 -96.7506 146° Southeast 462 532 31,000  Climbing Houston Center
10:30PM 31.4328 -96.6658 147° Southeast 468 539 30,900  Descending Houston Center
10:31PM 31.3236 -96.5792 146° Southeast 466 536 31,000 -180 Climbing Houston Center
10:32PM 31.2133 -96.4944 147° Southeast 467 537 30,600 -1,080 Descending Houston Center
10:33PM 31.1089 -96.4161 147° Southeast 444 511 28,900 -2,100 Descending Houston Center
10:34PM 31.0078 -96.3383 147° Southeast 433 498 26,400 -2,400 Descending Houston Center
10:35PM 30.9069 -96.2614 147° Southeast 427 491 24,000 -2,460 Descending Houston Center
10:36PM 30.8061 -96.1847 147° Southeast 427 491 21,500 -2,640 Descending Houston Center
10:37PM 30.6925 -96.0981 147° Southeast 417 480 18,700 -2,700 Descending Houston Center
10:38PM 30.6311 -96.0511 147° Southeast 383 441 16,900 -1,980 Descending Houston Center
10:38PM 30.6214 -96.0403 136° Southeast 392 451 16,700 -2,460 Descending Houston Center
10:38PM 30.5639 -95.9786 137° Southeast 385 443 14,900 -2,880 Descending Houston Center
10:39PM 30.5281 -95.9403 137° Southeast 380 437 13,800 -2,400 Descending Houston Center
10:39PM 30.4947 -95.9067 139° Southeast 369 425 12,700 -1,800 Descending Houston Center
10:40PM 30.4536 -95.8625 137° Southeast 363 418 12,000 -660 Descending Houston Center
10:40PM 30.4186 -95.8283 140° Southeast 303 349 12,000 -120 Level Houston Center
10:41PM 30.3911 -95.7969 135° Southeast 309 356 11,900  Descending Houston Center
10:41PM 30.3564 -95.7628 140° Southeast 293 337 12,000  Climbing Houston Center
10:42PM 30.3306 -95.7350 137° Southeast 288 331 11,900 -180 Descending Houston Center
10:42PM 30.3075 -95.7106 138° Southeast 294 338 11,900 -720 Level Houston Center
10:43PM 30.2694 -95.6708 138° Southeast 295 339 11,200 -1,260 Descending Houston Center
10:44PM 30.2097 -95.6081 138° Southeast 292 336 9,800 -1,560 Descending Houston Center
10:44PM 30.1872 -95.5844 138° Southeast 282 325 9,200 -1,620 Descending Houston Center
10:45PM 30.1519 -95.5478 138° Southeast 282 325 8,200 -1,560 Descending Houston Center
10:46PM 30.1069 -95.4797 127° Southeast 279 321 6,500 -1,140 Descending Houston Center
10:47PM 30.1064 -95.3917 90° East 275 316 6,000 -240 Descending Houston Center
10:48PM 30.1072 -95.3069 89° East 267 307 6,100 -960 Climbing Houston Center
10:49PM 30.1019 -95.2233 94° East 263 303 4,100 -2,160 Descending Houston Center
10:49PM 30.0906 -95.1928 113° Southeast 249 287 3,300 -1,380 Descending Houston Center
10:50PM 30.0583 -95.1847 168° South 234 269 2,700 -900 Descending Houston Center
10:50PM 30.0339 -95.1925 195° South 199 229 2,400 -1,140 Descending Houston Center